createdAt,value
2022-08-02T00:00:41.592Z,1019.68
2022-08-02T00:01:40.856Z,1019.71
2022-08-02T00:02:40.943Z,1019.68
2022-08-02T00:03:41.144Z,1019.65
2022-08-02T00:04:41.294Z,1019.64
2022-08-02T00:05:41.511Z,1019.64
2022-08-02T00:06:41.675Z,1019.62
2022-08-02T00:07:41.841Z,1019.64
2022-08-02T00:08:42.004Z,1019.64
2022-08-02T00:09:42.164Z,1019.65
2022-08-02T00:10:42.334Z,1019.64
2022-08-02T00:11:43.208Z,1019.68
2022-08-02T00:12:42.674Z,1019.70
2022-08-02T00:13:42.833Z,1019.72
2022-08-02T00:14:42.994Z,1019.76
2022-08-02T00:15:43.178Z,1019.72
2022-08-02T00:16:43.334Z,1019.71
2022-08-02T00:17:43.526Z,1019.70
2022-08-02T00:18:43.684Z,1019.69
2022-08-02T00:19:43.851Z,1019.68
2022-08-02T00:20:44.024Z,1019.69
2022-08-02T00:21:44.185Z,1019.67
2022-08-02T00:22:44.346Z,1019.66
2022-08-02T00:24:27.535Z,1019.64
2022-08-02T00:24:45.707Z,1019.62
2022-08-02T00:25:55.431Z,1019.62
2022-08-02T00:26:46.015Z,1019.63
2022-08-02T00:27:45.205Z,1019.60
2022-08-02T00:28:45.357Z,1019.60
2022-08-02T00:29:53.041Z,1019.64
2022-08-02T00:30:46.766Z,1019.64
2022-08-02T00:31:45.914Z,1019.64
2022-08-02T00:32:46.066Z,1019.60
2022-08-02T00:34:05.650Z,1019.57
2022-08-02T00:34:47.417Z,1019.56
2022-08-02T00:35:46.606Z,1019.54
2022-08-02T00:36:46.769Z,1019.57
2022-08-02T00:37:46.937Z,1019.57
2022-08-02T00:38:47.087Z,1019.57
2022-08-02T00:39:47.245Z,1019.55
2022-08-02T00:40:47.436Z,1019.55
2022-08-02T00:41:47.597Z,1019.55
2022-08-02T00:42:47.757Z,1019.55
2022-08-02T00:43:47.919Z,1019.54
2022-08-02T00:44:48.082Z,1019.55
2022-08-02T00:46:02.119Z,1019.56
2022-08-02T00:46:49.430Z,1019.53
2022-08-02T00:47:48.617Z,1019.56
2022-08-02T00:48:48.778Z,1019.58
2022-08-02T00:49:48.967Z,1019.63
2022-08-02T00:50:49.157Z,1019.63
2022-08-02T00:51:49.315Z,1019.64
2022-08-02T00:52:49.458Z,1019.61
2022-08-02T00:53:49.618Z,1019.63
2022-08-02T00:54:49.778Z,1019.58
2022-08-02T00:55:49.978Z,1019.58
2022-08-02T00:56:51.204Z,1019.60
2022-08-02T00:57:50.328Z,1019.61
2022-08-02T00:58:50.488Z,1019.66
2022-08-02T00:59:50.648Z,1019.63
2022-08-02T01:00:50.829Z,1019.66
2022-08-02T01:01:56.406Z,1019.67
2022-08-02T01:02:52.167Z,1019.68
2022-08-02T01:03:51.348Z,1019.72
2022-08-02T01:04:51.537Z,1019.73
2022-08-02T01:06:10.205Z,1019.72
2022-08-02T01:06:52.868Z,1019.76
2022-08-02T01:07:52.045Z,1019.75
2022-08-02T01:08:52.238Z,1019.74
2022-08-02T01:09:52.399Z,1019.77
2022-08-02T01:10:52.618Z,1019.75
2022-08-02T01:11:52.777Z,1019.78
2022-08-02T01:12:52.937Z,1019.78
2022-08-02T01:13:53.097Z,1019.78
2022-08-02T01:14:53.289Z,1019.75
2022-08-02T01:15:53.469Z,1019.77
2022-08-02T01:16:53.635Z,1019.75
2022-08-02T01:17:53.789Z,1019.76
2022-08-02T01:18:53.988Z,1019.74
2022-08-02T01:19:54.138Z,1019.77
2022-08-02T01:20:54.349Z,1019.80
2022-08-02T01:21:54.523Z,1019.79
2022-08-02T01:23:02.757Z,1019.83
2022-08-02T01:23:55.859Z,1019.81
2022-08-02T01:24:55.039Z,1019.81
2022-08-02T01:25:55.249Z,1019.84
2022-08-02T01:26:55.371Z,1019.82
2022-08-02T01:27:55.560Z,1019.84
2022-08-02T01:28:55.749Z,1019.87
2022-08-02T01:29:55.913Z,1019.87
2022-08-02T01:30:56.119Z,1019.82
2022-08-02T01:31:56.280Z,1019.83
2022-08-02T01:32:56.439Z,1019.82
2022-08-02T01:33:56.600Z,1019.88
2022-08-02T01:34:56.759Z,1019.85
2022-08-02T01:35:56.942Z,1019.86
2022-08-02T01:36:57.111Z,1019.89
2022-08-02T01:37:57.260Z,1019.90
2022-08-02T01:38:57.469Z,1019.89
2022-08-02T01:39:57.620Z,1019.88
2022-08-02T01:40:57.828Z,1019.86
2022-08-02T01:41:58.102Z,1019.84
2022-08-02T01:42:58.150Z,1019.82
2022-08-02T01:43:58.309Z,1019.81
2022-08-02T01:44:58.501Z,1019.82
2022-08-02T01:45:58.671Z,1019.87
2022-08-02T01:46:58.833Z,1019.82
2022-08-02T01:47:58.980Z,1019.79
2022-08-02T01:48:59.198Z,1019.83
2022-08-02T01:49:59.360Z,1019.80
2022-08-02T01:50:59.551Z,1019.77
2022-08-02T01:51:59.711Z,1019.74
2022-08-02T01:52:59.873Z,1019.77
2022-08-02T01:54:00.035Z,1019.74
2022-08-02T01:55:00.220Z,1019.76
2022-08-02T01:56:00.391Z,1019.77
2022-08-02T01:57:00.564Z,1019.74
2022-08-02T01:58:00.711Z,1019.75
2022-08-02T01:59:00.902Z,1019.76
2022-08-02T02:00:01.519Z,1019.75
2022-08-02T02:01:01.303Z,1019.75
2022-08-02T02:02:01.414Z,1019.76
2022-08-02T02:03:01.575Z,1019.79
2022-08-02T02:04:01.753Z,1019.78
2022-08-02T02:05:01.949Z,1019.81
2022-08-02T02:06:02.150Z,1019.79
2022-08-02T02:07:02.307Z,1019.80
2022-08-02T02:08:02.482Z,1019.77
2022-08-02T02:09:02.649Z,1019.77
2022-08-02T02:10:02.804Z,1019.78
2022-08-02T02:12:11.451Z,1019.74
2022-08-02T02:12:13.555Z,1019.73
2022-08-02T02:13:04.316Z,1019.75
2022-08-02T02:14:03.493Z,1019.78
2022-08-02T02:15:03.692Z,1019.78
2022-08-02T02:16:03.902Z,1019.82
2022-08-02T02:17:04.064Z,1019.82
2022-08-02T02:18:11.294Z,1019.80
2022-08-02T02:19:05.403Z,1019.77
2022-08-02T02:20:04.593Z,1019.78
2022-08-02T02:21:04.763Z,1019.82
2022-08-02T02:22:04.923Z,1019.78
2022-08-02T02:23:05.112Z,1019.82
2022-08-02T02:24:06.546Z,1019.84
2022-08-02T02:25:06.630Z,1019.85
2022-08-02T02:26:05.662Z,1019.83
2022-08-02T02:27:05.823Z,1019.85
2022-08-02T02:28:05.974Z,1019.85
2022-08-02T02:29:06.175Z,1019.87
2022-08-02T02:30:06.333Z,1019.88
2022-08-02T02:31:06.507Z,1019.89
2022-08-02T02:32:06.675Z,1019.86
2022-08-02T02:33:06.866Z,1019.84
2022-08-02T02:34:07.025Z,1019.86
2022-08-02T02:35:07.184Z,1019.89
2022-08-02T02:36:07.363Z,1019.88
2022-08-02T02:37:07.523Z,1019.90
2022-08-02T02:38:07.674Z,1019.90
2022-08-02T02:39:13.047Z,1019.94
2022-08-02T02:40:09.048Z,1019.90
2022-08-02T02:41:08.246Z,1019.95
2022-08-02T02:42:08.812Z,1019.92
2022-08-02T02:43:08.575Z,1019.93
2022-08-02T02:44:08.736Z,1019.97
2022-08-02T02:45:08.927Z,1019.94
2022-08-02T02:46:09.098Z,1019.98
2022-08-02T02:47:09.269Z,1019.90
2022-08-02T02:48:09.416Z,1019.96
2022-08-02T02:49:09.638Z,1019.96
2022-08-02T02:50:09.806Z,1019.95
2022-08-02T02:51:14.332Z,1019.97
2022-08-02T02:52:10.454Z,1019.97
2022-08-02T02:53:10.341Z,1019.99
2022-08-02T02:54:30.060Z,1020.03
2022-08-02T02:55:11.668Z,1020.01
2022-08-02T02:56:10.867Z,1020.03
2022-08-02T02:57:11.023Z,1020.04
2022-08-02T02:58:11.206Z,1020.07
2022-08-02T02:59:11.399Z,1020.06
2022-08-02T03:00:11.554Z,1020.05
2022-08-02T03:01:11.788Z,1020.10
2022-08-02T03:02:12.194Z,1020.10
2022-08-02T03:03:12.099Z,1020.14
2022-08-02T03:04:12.304Z,1020.12
2022-08-02T03:05:12.427Z,1020.13
2022-08-02T03:06:15.316Z,1020.15
2022-08-02T03:07:12.777Z,1020.15
2022-08-02T03:08:12.948Z,1020.18
2022-08-02T03:09:13.126Z,1020.16
2022-08-02T03:10:13.307Z,1020.19
2022-08-02T03:11:13.507Z,1020.17
2022-08-02T03:12:13.841Z,1020.18
2022-08-02T03:13:13.827Z,1020.16
2022-08-02T03:14:13.999Z,1020.17
2022-08-02T03:15:14.189Z,1020.15
2022-08-02T03:16:14.382Z,1020.16
2022-08-02T03:17:14.528Z,1020.14
2022-08-02T03:18:14.708Z,1020.16
2022-08-02T03:19:14.881Z,1020.17
2022-08-02T03:20:15.064Z,1020.18
2022-08-02T03:21:15.260Z,1020.21
2022-08-02T03:22:15.456Z,1020.21
2022-08-02T03:23:15.569Z,1020.25
2022-08-02T03:24:15.749Z,1020.28
2022-08-02T03:25:16.924Z,1020.23
2022-08-02T03:26:16.088Z,1020.23
2022-08-02T03:27:16.238Z,1020.24
2022-08-02T03:28:16.398Z,1020.29
2022-08-02T03:29:16.560Z,1020.26
2022-08-02T03:30:16.739Z,1020.29
2022-08-02T03:31:16.936Z,1020.30
2022-08-02T03:32:17.070Z,1020.30
2022-08-02T03:33:17.259Z,1020.29
2022-08-02T03:34:17.439Z,1020.26
2022-08-02T03:35:22.926Z,1020.26
2022-08-02T03:36:18.811Z,1020.35
2022-08-02T03:37:17.959Z,1020.30
2022-08-02T03:38:18.149Z,1020.29
2022-08-02T03:39:18.340Z,1020.31
2022-08-02T03:40:18.530Z,1020.29
2022-08-02T03:41:18.738Z,1020.31
2022-08-02T03:42:18.879Z,1020.32
2022-08-02T03:43:19.059Z,1020.33
2022-08-02T03:44:19.249Z,1020.31
2022-08-02T03:45:19.440Z,1020.34
2022-08-02T03:46:19.821Z,1020.37
2022-08-02T03:47:19.820Z,1020.42
2022-08-02T03:48:33.819Z,1020.36
2022-08-02T03:49:21.207Z,1020.40
2022-08-02T03:50:20.301Z,1020.37
2022-08-02T03:51:20.519Z,1020.39
2022-08-02T03:52:20.651Z,1020.39
2022-08-02T03:53:20.840Z,1020.42
2022-08-02T03:54:20.993Z,1020.42
2022-08-02T03:55:21.183Z,1020.45
2022-08-02T03:56:23.447Z,1020.46
2022-08-02T03:57:21.503Z,1020.46
2022-08-02T03:58:21.660Z,1020.43
2022-08-02T03:59:21.821Z,1020.42
2022-08-02T04:00:21.980Z,1020.42
2022-08-02T04:01:22.232Z,1020.42
2022-08-02T04:02:22.311Z,1020.41
2022-08-02T04:03:22.471Z,1020.45
2022-08-02T04:04:22.632Z,1020.43
2022-08-02T04:05:22.800Z,1020.44
2022-08-02T04:06:27.246Z,1020.44
2022-08-02T04:08:02.524Z,1020.43
2022-08-02T04:08:37.079Z,1020.48
2022-08-02T04:09:24.521Z,1020.48
2022-08-02T04:10:23.701Z,1020.52
2022-08-02T04:11:23.918Z,1020.53
2022-08-02T04:12:24.044Z,1020.52
2022-08-02T04:13:27.449Z,1020.51
2022-08-02T04:14:25.383Z,1020.52
2022-08-02T04:15:24.572Z,1020.55
2022-08-02T04:16:24.752Z,1020.54
2022-08-02T04:17:24.982Z,1020.56
2022-08-02T04:18:25.120Z,1020.56
2022-08-02T04:19:25.306Z,1020.56
2022-08-02T04:20:25.475Z,1020.57
2022-08-02T04:21:25.652Z,1020.60
2022-08-02T04:22:25.804Z,1020.59
2022-08-02T04:23:25.993Z,1020.62
2022-08-02T04:24:26.156Z,1020.60
2022-08-02T04:25:35.608Z,1020.62
2022-08-02T04:26:28.491Z,1020.65
2022-08-02T04:27:51.096Z,1020.64
2022-08-02T04:28:29.126Z,1020.66
2022-08-02T04:29:27.012Z,1020.66
2022-08-02T04:30:27.208Z,1020.70
2022-08-02T04:31:27.355Z,1020.68
2022-08-02T04:32:27.549Z,1020.73
2022-08-02T04:33:27.695Z,1020.74
2022-08-02T04:34:27.874Z,1020.70
2022-08-02T04:35:28.062Z,1020.67
2022-08-02T04:36:31.652Z,1020.65
2022-08-02T04:37:28.433Z,1020.67
2022-08-02T04:38:28.576Z,1020.68
2022-08-02T04:39:28.753Z,1020.66
2022-08-02T04:40:28.933Z,1020.63
2022-08-02T04:41:29.121Z,1020.64
2022-08-02T04:42:29.314Z,1020.64
2022-08-02T04:43:29.466Z,1020.71
2022-08-02T04:44:29.647Z,1020.72
2022-08-02T04:45:29.825Z,1020.70
2022-08-02T04:46:30.015Z,1020.70
2022-08-02T04:48:02.451Z,1020.73
2022-08-02T04:48:31.344Z,1020.70
2022-08-02T04:49:30.587Z,1020.69
2022-08-02T04:50:30.719Z,1020.69
2022-08-02T04:51:38.190Z,1020.69
2022-08-02T04:52:32.063Z,1020.70
2022-08-02T04:53:31.223Z,1020.70
2022-08-02T04:54:31.405Z,1020.70
2022-08-02T04:55:31.588Z,1020.71
2022-08-02T04:56:31.766Z,1020.69
2022-08-02T04:57:31.966Z,1020.65
2022-08-02T04:58:40.646Z,1020.65
2022-08-02T04:59:33.276Z,1020.62
2022-08-02T05:00:32.739Z,1020.62
2022-08-02T05:01:32.634Z,1020.64
2022-08-02T05:02:32.830Z,1020.65
2022-08-02T05:03:32.973Z,1020.62
2022-08-02T05:04:33.148Z,1020.65
2022-08-02T05:05:33.327Z,1020.64
2022-08-02T05:06:33.506Z,1020.67
2022-08-02T05:07:35.996Z,1020.64
2022-08-02T05:08:33.847Z,1020.64
2022-08-02T05:09:34.037Z,1020.66
2022-08-02T05:10:34.216Z,1020.62
2022-08-02T05:11:36.713Z,1020.67
2022-08-02T05:12:34.575Z,1020.64
2022-08-02T05:13:34.717Z,1020.64
2022-08-02T05:14:35.906Z,1020.64
2022-08-02T05:15:35.099Z,1020.67
2022-08-02T05:16:35.277Z,1020.68
2022-08-02T05:17:35.477Z,1020.63
2022-08-02T05:18:35.628Z,1020.65
2022-08-02T05:19:35.807Z,1020.68
2022-08-02T05:20:35.987Z,1020.66
2022-08-02T05:21:36.167Z,1020.67
2022-08-02T05:22:36.370Z,1020.66
2022-08-02T05:23:36.535Z,1020.70
2022-08-02T05:24:36.717Z,1020.68
2022-08-02T05:25:36.896Z,1020.73
2022-08-02T05:26:37.077Z,1020.74
2022-08-02T05:27:37.267Z,1020.74
2022-08-02T05:28:37.429Z,1020.80
2022-08-02T05:29:37.588Z,1020.77
2022-08-02T05:30:37.762Z,1020.78
2022-08-02T05:31:37.929Z,1020.79
2022-08-02T05:32:38.108Z,1020.77
2022-08-02T05:33:38.258Z,1020.74
2022-08-02T05:34:38.429Z,1020.76
2022-08-02T05:35:38.596Z,1020.83
2022-08-02T05:36:38.772Z,1020.82
2022-08-02T05:37:38.945Z,1020.81
2022-08-02T05:38:39.131Z,1020.82
2022-08-02T05:39:39.288Z,1020.83
2022-08-02T05:40:54.285Z,1020.80
2022-08-02T05:41:40.612Z,1020.78
2022-08-02T05:42:39.816Z,1020.82
2022-08-02T05:43:39.990Z,1020.78
2022-08-02T05:44:40.171Z,1020.80
2022-08-02T05:45:40.349Z,1020.82
2022-08-02T05:46:40.522Z,1020.86
2022-08-02T05:47:40.710Z,1020.88
2022-08-02T05:48:40.891Z,1020.91
2022-08-02T05:49:41.155Z,1020.80
2022-08-02T05:50:41.253Z,1020.89
2022-08-02T05:51:41.412Z,1020.85
2022-08-02T05:52:41.609Z,1020.88
2022-08-02T05:53:41.761Z,1020.87
2022-08-02T05:54:41.952Z,1020.88
2022-08-02T05:55:42.122Z,1020.89
2022-08-02T05:56:42.312Z,1020.89
2022-08-02T05:57:43.689Z,1020.90
2022-08-02T05:58:42.680Z,1020.88
2022-08-02T05:59:42.833Z,1020.89
2022-08-02T06:00:43.002Z,1020.89
2022-08-02T06:01:43.223Z,1020.89
2022-08-02T06:02:43.373Z,1020.92
2022-08-02T06:03:43.513Z,1020.82
2022-08-02T06:04:43.703Z,1020.86
2022-08-02T06:05:43.873Z,1020.90
2022-08-02T06:06:44.063Z,1020.95
2022-08-02T06:07:44.254Z,1020.96
2022-08-02T06:08:47.523Z,1020.89
2022-08-02T06:09:44.604Z,1020.88
2022-08-02T06:10:44.795Z,1020.91
2022-08-02T06:12:00.766Z,1020.92
2022-08-02T06:12:46.164Z,1020.94
2022-08-02T06:13:45.326Z,1020.92
2022-08-02T06:14:45.507Z,1020.94
2022-08-02T06:15:53.336Z,1020.90
2022-08-02T06:16:46.846Z,1020.91
2022-08-02T06:17:46.038Z,1020.91
2022-08-02T06:18:46.213Z,1020.88
2022-08-02T06:19:51.541Z,1020.88
2022-08-02T06:20:47.556Z,1020.86
2022-08-02T06:22:33.962Z,1020.84
2022-08-02T06:22:48.151Z,1020.79
2022-08-02T06:23:57.692Z,1020.81
2022-08-02T06:24:48.268Z,1020.86
2022-08-02T06:25:50.144Z,1020.83
2022-08-02T06:26:47.627Z,1020.76
2022-08-02T06:27:47.809Z,1020.76
2022-08-02T06:28:47.988Z,1020.77
2022-08-02T06:29:48.168Z,1020.76
2022-08-02T06:30:48.349Z,1020.71
2022-08-02T06:31:48.520Z,1020.67
2022-08-02T06:32:48.730Z,1020.67
2022-08-02T06:33:48.890Z,1020.71
2022-08-02T06:34:49.082Z,1020.67
2022-08-02T06:35:49.250Z,1020.75
2022-08-02T06:36:49.480Z,1020.75
2022-08-02T06:37:49.630Z,1020.77
2022-08-02T06:38:50.888Z,1020.75
2022-08-02T06:39:49.961Z,1020.72
2022-08-02T06:40:50.159Z,1020.66
2022-08-02T06:41:50.331Z,1020.65
2022-08-02T06:42:50.534Z,1020.67
2022-08-02T06:43:50.673Z,1020.69
2022-08-02T06:44:55.559Z,1020.62
2022-08-02T06:45:52.043Z,1020.65
2022-08-02T06:47:11.530Z,1020.60
2022-08-02T06:47:52.424Z,1020.65
2022-08-02T06:48:51.621Z,1020.64
2022-08-02T06:49:54.239Z,1020.63
2022-08-02T06:50:51.920Z,1020.64
2022-08-02T06:51:52.093Z,1020.65
2022-08-02T06:52:52.304Z,1020.60
2022-08-02T06:53:52.463Z,1020.56
2022-08-02T06:54:52.642Z,1020.53
2022-08-02T06:55:52.815Z,1020.48
2022-08-02T06:56:52.995Z,1020.51
2022-08-02T06:57:53.884Z,1020.52
2022-08-02T06:58:53.356Z,1020.52
2022-08-02T06:59:53.546Z,1020.51
2022-08-02T07:00:53.708Z,1020.52
2022-08-02T07:01:53.945Z,1020.47
2022-08-02T07:02:54.058Z,1020.50
2022-08-02T07:03:54.237Z,1020.51
2022-08-02T07:04:54.415Z,1020.47
2022-08-02T07:05:54.587Z,1020.47
2022-08-02T07:06:54.768Z,1020.50
2022-08-02T07:07:54.960Z,1020.51
2022-08-02T07:09:19.401Z,1020.56
2022-08-02T07:10:00.741Z,1020.53
2022-08-02T07:10:56.479Z,1020.50
2022-08-02T07:11:55.658Z,1020.55
2022-08-02T07:12:59.619Z,1020.54
2022-08-02T07:13:56.029Z,1020.59
2022-08-02T07:14:56.207Z,1020.53
2022-08-02T07:15:56.380Z,1020.55
2022-08-02T07:16:56.558Z,1020.58
2022-08-02T07:17:56.741Z,1020.59
2022-08-02T07:18:56.880Z,1020.51
2022-08-02T07:19:57.068Z,1020.53
2022-08-02T07:20:57.241Z,1020.49
2022-08-02T07:22:01.756Z,1020.52
2022-08-02T07:22:57.612Z,1020.48
2022-08-02T07:23:57.752Z,1020.52
2022-08-02T07:24:57.921Z,1020.47
2022-08-02T07:26:02.882Z,1020.50
2022-08-02T07:27:11.367Z,1020.50
2022-08-02T07:27:59.459Z,1020.50
2022-08-02T07:28:58.619Z,1020.43
2022-08-02T07:29:58.800Z,1020.45
2022-08-02T07:30:58.975Z,1020.50
2022-08-02T07:31:59.152Z,1020.45
2022-08-02T07:32:59.353Z,1020.47
2022-08-02T07:33:59.495Z,1020.47
2022-08-02T07:34:59.675Z,1020.52
2022-08-02T07:35:59.834Z,1020.51
2022-08-02T07:37:01.023Z,1020.56
2022-08-02T07:38:02.175Z,1020.51
2022-08-02T07:39:00.366Z,1020.50
2022-08-02T07:40:00.575Z,1020.44
2022-08-02T07:41:00.714Z,1020.38
2022-08-02T07:42:00.887Z,1020.41
2022-08-02T07:43:04.096Z,1020.43
2022-08-02T07:44:01.246Z,1020.39
2022-08-02T07:45:01.427Z,1020.38
2022-08-02T07:46:01.616Z,1020.41
2022-08-02T07:47:01.757Z,1020.37
2022-08-02T07:48:01.948Z,1020.36
2022-08-02T07:49:02.185Z,1020.35
2022-08-02T07:50:02.335Z,1020.33
2022-08-02T07:51:02.489Z,1020.34
2022-08-02T07:52:02.658Z,1020.32
2022-08-02T07:53:02.862Z,1020.32
2022-08-02T07:54:04.777Z,1020.25
2022-08-02T07:55:03.208Z,1020.26
2022-08-02T07:56:03.381Z,1020.25
2022-08-02T07:57:03.560Z,1020.24
2022-08-02T07:58:03.740Z,1020.21
2022-08-02T07:59:03.929Z,1020.15
2022-08-02T08:00:04.111Z,1020.13
2022-08-02T08:01:04.354Z,1020.14
2022-08-02T08:02:04.507Z,1020.06
2022-08-02T08:03:04.651Z,1020.07
2022-08-02T08:04:04.833Z,1020.17
2022-08-02T08:05:05.019Z,1020.17
2022-08-02T08:06:05.191Z,1020.18
2022-08-02T08:07:05.383Z,1020.16
2022-08-02T08:08:05.587Z,1020.16
2022-08-02T08:09:05.743Z,1020.10
2022-08-02T08:10:05.922Z,1020.11
2022-08-02T08:11:06.114Z,1020.11
2022-08-02T08:12:06.305Z,1020.09
2022-08-02T08:13:06.495Z,1020.08
2022-08-02T08:14:06.711Z,1020.06
2022-08-02T08:15:06.857Z,1020.09
2022-08-02T08:16:07.025Z,1020.04
2022-08-02T08:17:07.219Z,1020.02
2022-08-02T08:18:07.406Z,1020.03
2022-08-02T08:19:07.587Z,1020.02
2022-08-02T08:20:07.757Z,1019.99
2022-08-02T08:21:07.956Z,1020.03
2022-08-02T08:22:08.126Z,1019.96
2022-08-02T08:23:08.326Z,1019.99
2022-08-02T08:24:08.467Z,1020.03
2022-08-02T08:25:08.668Z,1020.04
2022-08-02T08:26:11.638Z,1020.06
2022-08-02T08:27:09.998Z,1019.99
2022-08-02T08:28:09.168Z,1019.95
2022-08-02T08:29:09.329Z,1019.90
2022-08-02T08:30:09.521Z,1019.88
2022-08-02T08:31:09.697Z,1019.87
2022-08-02T08:32:14.162Z,1019.85
2022-08-02T08:33:11.060Z,1019.86
2022-08-02T08:34:10.218Z,1019.92
2022-08-02T08:35:10.389Z,1019.89
2022-08-02T08:36:10.559Z,1019.91
2022-08-02T08:37:18.306Z,1019.95
2022-08-02T08:38:11.920Z,1019.95
2022-08-02T08:39:11.082Z,1019.94
2022-08-02T08:40:11.252Z,1019.96
2022-08-02T08:41:11.451Z,1019.89
2022-08-02T08:42:11.752Z,1019.88
2022-08-02T08:43:11.800Z,1019.84
2022-08-02T08:44:11.933Z,1019.89
2022-08-02T08:45:12.122Z,1019.84
2022-08-02T08:46:12.310Z,1019.86
2022-08-02T08:47:12.483Z,1019.85
2022-08-02T08:48:12.708Z,1019.83
2022-08-02T08:49:12.875Z,1019.84
2022-08-02T08:50:18.890Z,1019.83
2022-08-02T08:51:14.183Z,1019.85
2022-08-02T08:52:13.762Z,1019.80
2022-08-02T08:53:13.838Z,1019.80
2022-08-02T08:54:13.704Z,1019.78
2022-08-02T08:55:13.885Z,1019.76
2022-08-02T08:56:16.256Z,1019.81
2022-08-02T08:57:14.222Z,1019.82
2022-08-02T08:58:14.426Z,1019.77
2022-08-02T08:59:14.625Z,1019.81
2022-08-02T09:00:14.728Z,1019.82
2022-08-02T09:01:14.994Z,1019.80
2022-08-02T09:02:17.191Z,1019.78
2022-08-02T09:03:16.294Z,1019.75
2022-08-02T09:04:15.447Z,1019.85
2022-08-02T09:05:15.637Z,1019.83
2022-08-02T09:06:15.808Z,1019.81
2022-08-02T09:07:15.998Z,1019.84
2022-08-02T09:08:17.153Z,1019.80
2022-08-02T09:09:16.359Z,1019.76
2022-08-02T09:10:16.530Z,1019.78
2022-08-02T09:11:16.725Z,1019.75
2022-08-02T09:12:16.890Z,1019.77
2022-08-02T09:13:39.157Z,1019.81
2022-08-02T09:14:18.280Z,1019.78
2022-08-02T09:15:17.438Z,1019.74
2022-08-02T09:16:17.610Z,1019.73
2022-08-02T09:17:17.823Z,1019.78
2022-08-02T09:18:17.982Z,1019.74
2022-08-02T09:19:18.251Z,1019.74
2022-08-02T09:20:18.384Z,1019.74
2022-08-02T09:21:18.544Z,1019.70
2022-08-02T09:22:18.719Z,1019.67
2022-08-02T09:23:18.902Z,1019.67
2022-08-02T09:24:19.094Z,1019.70
2022-08-02T09:25:19.272Z,1019.68
2022-08-02T09:26:19.443Z,1019.73
2022-08-02T09:27:19.633Z,1019.71
2022-08-02T09:28:19.810Z,1019.68
2022-08-02T09:29:20.005Z,1019.63
2022-08-02T09:30:20.154Z,1019.59
2022-08-02T09:31:20.361Z,1019.59
2022-08-02T09:32:20.535Z,1019.59
2022-08-02T09:33:20.715Z,1019.60
2022-08-02T09:34:20.895Z,1019.54
2022-08-02T09:35:21.075Z,1019.60
2022-08-02T09:36:21.256Z,1019.60
2022-08-02T09:37:21.434Z,1019.56
2022-08-02T09:38:21.626Z,1019.54
2022-08-02T09:39:21.816Z,1019.55
2022-08-02T09:40:21.995Z,1019.57
2022-08-02T09:41:22.168Z,1019.62
2022-08-02T09:42:22.356Z,1019.56
2022-08-02T09:43:23.540Z,1019.57
2022-08-02T09:44:22.761Z,1019.58
2022-08-02T09:45:22.898Z,1019.55
2022-08-02T09:46:24.372Z,1019.55
2022-08-02T09:47:23.277Z,1019.52
2022-08-02T09:48:23.439Z,1019.49
2022-08-02T09:49:23.717Z,1019.53
2022-08-02T09:50:23.789Z,1019.48
2022-08-02T09:51:23.968Z,1019.46
2022-08-02T09:52:24.149Z,1019.43
2022-08-02T09:53:25.327Z,1019.39
2022-08-02T09:54:24.561Z,1019.40
2022-08-02T09:55:24.701Z,1019.30
2022-08-02T09:56:30.278Z,1019.58
2022-08-02T09:57:26.051Z,1019.53
2022-08-02T09:58:25.258Z,1019.49
2022-08-02T09:59:25.432Z,1019.54
2022-08-02T10:00:43.559Z,1019.58
2022-08-02T10:01:34.178Z,1019.58
2022-08-02T10:02:27.080Z,1019.49
2022-08-02T10:03:31.081Z,1019.55
2022-08-02T10:04:27.394Z,1019.50
2022-08-02T10:05:26.523Z,1019.53
2022-08-02T10:06:26.703Z,1019.53
2022-08-02T10:07:26.881Z,1019.48
2022-08-02T10:08:27.066Z,1019.52
2022-08-02T10:09:27.263Z,1019.48
2022-08-02T10:10:27.418Z,1019.59
2022-08-02T10:11:27.596Z,1019.51
2022-08-02T10:12:27.774Z,1019.64
2022-08-02T10:13:27.953Z,1019.56
2022-08-02T10:14:28.163Z,1019.53
2022-08-02T10:15:28.324Z,1019.50
2022-08-02T10:16:28.514Z,1019.46
2022-08-02T10:17:28.685Z,1019.47
2022-08-02T10:18:43.279Z,1019.42
2022-08-02T10:20:02.288Z,1019.71
2022-08-02T10:20:30.235Z,1019.59
2022-08-02T10:21:29.386Z,1019.56
2022-08-02T10:22:29.576Z,1019.59
2022-08-02T10:23:29.750Z,1019.55
2022-08-02T10:24:29.945Z,1019.57
2022-08-02T10:25:30.120Z,1019.57
2022-08-02T10:26:30.298Z,1019.60
2022-08-02T10:27:43.298Z,1019.58
2022-08-02T10:28:31.650Z,1019.65
2022-08-02T10:29:30.838Z,1019.72
2022-08-02T10:30:32.009Z,1019.77
2022-08-02T10:31:31.168Z,1019.58
2022-08-02T10:32:31.375Z,1019.53
2022-08-02T10:33:31.505Z,1019.63
2022-08-02T10:34:31.927Z,1019.54
2022-08-02T10:35:31.859Z,1019.57
2022-08-02T10:36:32.041Z,1019.58
2022-08-02T10:37:32.220Z,1019.50
2022-08-02T10:38:32.418Z,1019.52
2022-08-02T10:39:32.579Z,1019.50
2022-08-02T10:40:32.730Z,1019.46
2022-08-02T10:41:32.900Z,1019.41
2022-08-02T10:42:33.088Z,1019.38
2022-08-02T10:43:33.260Z,1019.31
2022-08-02T10:44:33.451Z,1019.32
2022-08-02T10:45:33.627Z,1019.27
2022-08-02T10:46:33.815Z,1019.27
2022-08-02T10:47:33.980Z,1019.22
2022-08-02T10:48:34.163Z,1019.19
2022-08-02T10:49:39.877Z,1019.28
2022-08-02T10:50:35.513Z,1019.28
2022-08-02T10:51:34.718Z,1019.25
2022-08-02T10:52:34.865Z,1019.24
2022-08-02T10:53:35.042Z,1019.24
2022-08-02T10:54:35.243Z,1019.15
2022-08-02T10:55:35.413Z,1019.20
2022-08-02T10:56:35.595Z,1019.19
2022-08-02T10:57:35.754Z,1019.12
2022-08-02T10:58:35.942Z,1019.12
2022-08-02T10:59:36.304Z,1019.09
2022-08-02T11:00:36.330Z,1019.11
2022-08-02T11:01:38.567Z,1019.10
2022-08-02T11:02:36.661Z,1019.08
2022-08-02T11:03:39.406Z,1019.05
2022-08-02T11:04:37.044Z,1019.06
2022-08-02T11:05:42.769Z,1019.03
2022-08-02T11:06:38.356Z,1019.03
2022-08-02T11:07:37.513Z,1019.06
2022-08-02T11:08:37.696Z,1019.09
2022-08-02T11:09:37.906Z,1019.09
2022-08-02T11:10:38.046Z,1019.07
2022-08-02T11:11:53.554Z,1019.07
2022-08-02T11:12:39.421Z,1019.05
2022-08-02T11:13:38.607Z,1019.02
2022-08-02T11:14:38.827Z,1018.99
2022-08-02T11:15:38.957Z,1019.03
2022-08-02T11:16:39.147Z,1019.01
2022-08-02T11:17:39.327Z,1019.00
2022-08-02T11:18:39.509Z,1019.03
2022-08-02T11:19:39.667Z,1019.05
2022-08-02T11:20:39.837Z,1019.02
2022-08-02T11:21:40.020Z,1019.03
2022-08-02T11:22:40.199Z,1019.04
2022-08-02T11:23:44.722Z,1019.04
2022-08-02T11:24:41.589Z,1019.05
2022-08-02T11:26:03.278Z,1019.02
2022-08-02T11:26:41.917Z,1018.99
2022-08-02T11:27:41.099Z,1019.03
2022-08-02T11:28:41.279Z,1019.00
2022-08-02T11:29:41.471Z,1019.01
2022-08-02T11:30:41.650Z,1018.97
2022-08-02T11:31:41.830Z,1018.95
2022-08-02T11:32:42.010Z,1018.99
2022-08-02T11:33:42.190Z,1018.95
2022-08-02T11:34:42.388Z,1018.96
2022-08-02T11:35:42.530Z,1018.93
2022-08-02T11:36:42.712Z,1018.92
2022-08-02T11:37:42.891Z,1018.93
2022-08-02T11:38:43.072Z,1018.88
2022-08-02T11:39:43.272Z,1018.96
2022-08-02T11:40:43.425Z,1018.93
2022-08-02T11:41:46.416Z,1018.90
2022-08-02T11:42:43.772Z,1018.96
2022-08-02T11:43:43.952Z,1018.95
2022-08-02T11:44:44.150Z,1018.90
2022-08-02T11:45:44.293Z,1018.91
2022-08-02T11:46:44.473Z,1018.90
2022-08-02T11:47:44.645Z,1018.91
2022-08-02T11:48:44.841Z,1018.90
2022-08-02T11:49:45.073Z,1018.91
2022-08-02T11:50:45.184Z,1018.90
2022-08-02T11:51:45.384Z,1018.94
2022-08-02T11:52:45.534Z,1018.84
2022-08-02T11:53:45.713Z,1018.82
2022-08-02T11:54:45.906Z,1018.77
2022-08-02T11:55:46.047Z,1018.81
2022-08-02T11:56:46.225Z,1018.90
2022-08-02T11:58:04.456Z,1018.82
2022-08-02T11:58:47.594Z,1018.84
2022-08-02T11:59:46.795Z,1018.85
2022-08-02T12:00:46.944Z,1018.85
2022-08-02T12:01:47.126Z,1018.82
2022-08-02T12:02:47.354Z,1018.82
2022-08-02T12:03:47.580Z,1018.74
2022-08-02T12:04:47.676Z,1018.78
2022-08-02T12:06:05.617Z,1018.73
2022-08-02T12:06:49.037Z,1018.75
2022-08-02T12:07:48.228Z,1018.72